sensor_id;sensor_type;location;lat;lon;timestamp;pressure;altitude;pressure_sealevel;temperature;humidity
38400;BME280;24180;42.676;23.320;2023-04-21T00:00:56;94357.44;;;10.58;100.00
38400;BME280;24180;42.676;23.320;2023-04-21T00:03:23;94307.25;;;10.25;100.00
38400;BME280;24180;42.676;23.320;2023-04-21T00:05:50;94330.28;;;10.36;100.00
38400;BME280;24180;42.676;23.320;2023-04-21T00:08:17;94362.44;;;10.59;100.00
38400;BME280;24180;42.676;23.320;2023-04-21T00:10:43;94357.44;;;10.58;100.00
38400;BME280;24180;42.676;23.320;2023-04-21T00:13:09;94354.03;;;10.57;100.00
38400;BME280;24180;42.676;23.320;2023-04-21T00:15:34;94348.34;;;10.54;100.00
38400;BME280;24180;42.676;23.320;2023-04-21T00:18:00;94346.72;;;10.53;100.00
38400;BME280;24180;42.676;23.320;2023-04-21T00:20:28;94317.00;;;10.31;100.00
38400;BME280;24180;42.676;23.320;2023-04-21T00:22:57;94342.41;;;10.61;100.00
38400;BME280;24180;42.676;23.320;2023-04-21T00:25:23;94328.59;;;10.53;100.00
38400;BME280;24180;42.676;23.320;2023-04-21T00:27:48;94340.78;;;10.60;100.00
38400;BME280;24180;42.676;23.320;2023-04-21T00:30:15;94350.81;;;10.63;100.00
38400;BME280;24180;42.676;23.320;2023-04-21T00:32:40;94365.59;;;10.71;100.00
38400;BME280;24180;42.676;23.320;2023-04-21T00:35:06;94336.31;;;10.45;100.00
38400;BME280;24180;42.676;23.320;2023-04-21T00:37:31;94351.28;;;10.59;100.00
38400;BME280;24180;42.676;23.320;2023-04-21T00:39:57;94370.38;;;10.58;100.00
38400;BME280;24180;42.676;23.320;2023-04-21T00:42:23;94341.19;;;10.48;100.00
38400;BME280;24180;42.676;23.320;2023-04-21T00:44:50;94361.94;;;10.56;100.00
38400;BME280;24180;42.676;23.320;2023-04-21T00:47:16;94358.91;;;10.60;100.00
38400;BME280;24180;42.676;23.320;2023-04-21T00:49:41;94321.03;;;10.33;100.00
38400;BME280;24180;42.676;23.320;2023-04-21T00:52:07;94346.47;;;10.38;100.00
38400;BME280;24180;42.676;23.320;2023-04-21T00:54:36;94353.31;;;10.47;100.00
38400;BME280;24180;42.676;23.320;2023-04-21T00:57:03;94345.22;;;10.42;100.00
38400;BME280;24180;42.676;23.320;2023-04-21T00:59:29;94321.00;;;10.25;100.00
38400;BME280;24180;42.676;23.320;2023-04-21T01:01:55;94347.94;;;10.41;100.00
38400;BME280;24180;42.676;23.320;2023-04-21T01:04:20;94351.28;;;10.33;100.00
38400;BME280;24180;42.676;23.320;2023-04-21T01:06:46;94321.50;;;10.11;100.00
38400;BME280;24180;42.676;23.320;2023-04-21T01:09:12;94347.75;;;10.34;100.00
38400;BME280;24180;42.676;23.320;2023-04-21T01:11:38;94307.72;;;10.03;100.00
38400;BME280;24180;42.676;23.320;2023-04-21T01:14:04;94342.59;;;10.16;100.00
38400;BME280;24180;42.676;23.320;2023-04-21T01:16:29;94275.06;;;9.84;100.00
38400;BME280;24180;42.676;23.320;2023-04-21T01:18:57;94323.13;;;10.12;100.00
38400;BME280;24180;42.676;23.320;2023-04-21T01:21:23;94318.13;;;10.11;100.00
38400;BME280;24180;42.676;23.320;2023-04-21T01:23:48;94348.28;;;10.20;100.00
38400;BME280;24180;42.676;23.320;2023-04-21T01:26:17;94341.84;;;10.24;100.00
38400;BME280;24180;42.676;23.320;2023-04-21T01:28:43;94332.16;;;10.08;100.00
38400;BME280;24180;42.676;23.320;2023-04-21T01:31:08;94344.28;;;10.25;100.00
38400;BME280;24180;42.676;23.320;2023-04-21T01:33:34;94342.16;;;10.21;100.00
38400;BME280;24180;42.676;23.320;2023-04-21T01:35:59;94314.00;;;10.00;100.00
38400;BME280;24180;42.676;23.320;2023-04-21T01:38:26;94305.91;;;10.03;100.00
38400;BME280;24180;42.676;23.320;2023-04-21T01:40:53;94344.09;;;10.19;100.00
38400;BME280;24180;42.676;23.320;2023-04-21T01:43:22;94310.59;;;10.00;100.00
38400;BME280;24180;42.676;23.320;2023-04-21T01:45:48;94334.75;;;10.08;100.00
38400;BME280;24180;42.676;23.320;2023-04-21T01:48:13;94303.59;;;9.92;100.00
38400;BME280;24180;42.676;23.320;2023-04-21T01:50:39;94297.63;;;9.74;100.00
38400;BME280;24180;42.676;23.320;2023-04-21T01:53:05;94338.47;;;9.88;100.00
38400;BME280;24180;42.676;23.320;2023-04-21T01:55:32;94310.31;;;9.85;100.00
38400;BME280;24180;42.676;23.320;2023-04-21T01:57:57;94294.94;;;9.83;100.00
38400;BME280;24180;42.676;23.320;2023-04-21T02:00:24;94306.56;;;9.79;100.00
38400;BME280;24180;42.676;23.320;2023-04-21T02:02:49;94326.56;;;9.95;100.00
38400;BME280;24180;42.676;23.320;2023-04-21T02:05:14;94336.91;;;9.95;100.00
38400;BME280;24180;42.676;23.320;2023-04-21T02:07:40;94331.06;;;9.93;100.00
38400;BME280;24180;42.676;23.320;2023-04-21T02:10:06;94339.22;;;9.98;100.00
38400;BME280;24180;42.676;23.320;2023-04-21T02:12:31;94342.38;;;9.92;100.00
38400;BME280;24180;42.676;23.320;2023-04-21T02:14:57;94309.59;;;9.75;100.00
38400;BME280;24180;42.676;23.320;2023-04-21T02:17:22;94309.59;;;9.75;100.00
38400;BME280;24180;42.676;23.320;2023-04-21T02:19:48;94328.88;;;9.80;100.00
38400;BME280;24180;42.676;23.320;2023-04-21T02:22:13;94334.41;;;9.68;100.00
38400;BME280;24180;42.676;23.320;2023-04-21T02:24:39;94323.88;;;9.61;100.00
38400;BME280;24180;42.676;23.320;2023-04-21T02:27:04;94335.31;;;9.76;100.00
38400;BME280;24180;42.676;23.320;2023-04-21T02:29:30;94326.06;;;9.74;100.00
38400;BME280;24180;42.676;23.320;2023-04-21T02:31:56;94314.03;;;9.82;100.00
38400;BME280;24180;42.676;23.320;2023-04-21T02:34:21;94328.13;;;9.88;100.00
38400;BME280;24180;42.676;23.320;2023-04-21T02:36:47;94330.84;;;10.04;100.00
38400;BME280;24180;42.676;23.320;2023-04-21T02:39:12;94256.72;;;9.69;100.00
38400;BME280;24180;42.676;23.320;2023-04-21T02:41:38;94302.06;;;10.07;100.00
38400;BME280;24180;42.676;23.320;2023-04-21T02:44:04;94298.97;;;10.04;100.00
38400;BME280;24180;42.676;23.320;2023-04-21T02:46:29;94311.28;;;10.27;100.00
38400;BME280;24180;42.676;23.320;2023-04-21T02:48:55;94314.41;;;10.31;100.00
38400;BME280;24180;42.676;23.320;2023-04-21T02:51:20;94323.38;;;10.45;100.00
38400;BME280;24180;42.676;23.320;2023-04-21T02:53:46;94285.91;;;10.23;100.00
38400;BME280;24180;42.676;23.320;2023-04-21T02:56:11;94305.53;;;10.33;100.00
38400;BME280;24180;42.676;23.320;2023-04-21T02:58:38;94311.50;;;10.34;100.00
38400;BME280;24180;42.676;23.320;2023-04-21T03:01:04;94340.28;;;10.57;100.00
38400;BME280;24180;42.676;23.320;2023-04-21T03:03:30;94333.78;;;10.53;100.00
38400;BME280;24180;42.676;23.320;2023-04-21T03:06:00;94316.09;;;10.48;100.00
38400;BME280;24180;42.676;23.320;2023-04-21T03:08:26;94328.44;;;10.54;100.00
38400;BME280;24180;42.676;23.320;2023-04-21T03:10:52;94322.78;;;10.51;100.00
38400;BME280;24180;42.676;23.320;2023-04-21T03:13:17;94342.25;;;10.63;100.00
38400;BME280;24180;42.676;23.320;2023-04-21T03:15:43;94312.66;;;10.40;100.00
38400;BME280;24180;42.676;23.320;2023-04-21T03:18:09;94325.38;;;10.51;100.00
38400;BME280;24180;42.676;23.320;2023-04-21T03:20:35;94306.53;;;10.41;100.00
38400;BME280;24180;42.676;23.320;2023-04-21T03:23:00;94324.88;;;10.55;100.00
38400;BME280;24180;42.676;23.320;2023-04-21T03:25:26;94303.97;;;10.49;100.00
38400;BME280;24180;42.676;23.320;2023-04-21T03:27:54;94343.41;;;10.68;100.00
38400;BME280;24180;42.676;23.320;2023-04-21T03:30:21;94302.81;;;10.43;100.00
38400;BME280;24180;42.676;23.320;2023-04-21T03:32:47;94331.59;;;10.66;100.00
38400;BME280;24180;42.676;23.320;2023-04-21T03:35:12;94329.63;;;10.68;100.00
38400;BME280;24180;42.676;23.320;2023-04-21T03:37:38;94316.97;;;10.57;100.00
38400;BME280;24180;42.676;23.320;2023-04-21T03:40:03;94310.47;;;10.53;100.00
38400;BME280;24180;42.676;23.320;2023-04-21T03:42:36;94316.97;;;10.57;100.00
38400;BME280;24180;42.676;23.320;2023-04-21T03:45:06;94339.50;;;10.64;100.00
38400;BME280;24180;42.676;23.320;2023-04-21T03:47:32;94336.78;;;10.66;100.00
38400;BME280;24180;42.676;23.320;2023-04-21T03:49:57;94316.44;;;10.45;100.00
38400;BME280;24180;42.676;23.320;2023-04-21T03:52:23;94351.50;;;10.65;100.00
38400;BME280;24180;42.676;23.320;2023-04-21T03:54:49;94327.72;;;10.44;100.00
38400;BME280;24180;42.676;23.320;2023-04-21T03:57:14;94356.16;;;10.62;100.00
38400;BME280;24180;42.676;23.320;2023-04-21T03:59:40;94356.16;;;10.62;100.00
38400;BME280;24180;42.676;23.320;2023-04-21T04:02:05;94353.25;;;10.65;100.00
38400;BME280;24180;42.676;23.320;2023-04-21T04:04:31;94362.97;;;10.63;100.00
38400;BME280;24180;42.676;23.320;2023-04-21T04:06:56;94338.00;;;10.54;100.00
38400;BME280;24180;42.676;23.320;2023-04-21T04:09:22;94354.72;;;10.67;100.00
38400;BME280;24180;42.676;23.320;2023-04-21T04:11:48;94343.69;;;10.57;100.00
38400;BME280;24180;42.676;23.320;2023-04-21T04:14:14;94380.19;;;10.80;100.00
38400;BME280;24180;42.676;23.320;2023-04-21T04:16:39;94357.97;;;10.69;100.00
38400;BME280;24180;42.676;23.320;2023-04-21T04:19:06;94379.38;;;10.79;100.00
38400;BME280;24180;42.676;23.320;2023-04-21T04:21:31;94374.88;;;10.82;100.00
38400;BME280;24180;42.676;23.320;2023-04-21T04:23:57;94376.34;;;10.84;100.00
38400;BME280;24180;42.676;23.320;2023-04-21T04:26:23;94377.66;;;10.88;100.00
38400;BME280;24180;42.676;23.320;2023-04-21T04:28:50;94376.56;;;10.91;100.00
38400;BME280;24180;42.676;23.320;2023-04-21T04:31:16;94358.88;;;10.86;100.00
38400;BME280;24180;42.676;23.320;2023-04-21T04:33:42;94380.53;;;11.11;100.00
38400;BME280;24180;42.676;23.320;2023-04-21T04:36:08;94377.13;;;11.10;100.00
38400;BME280;24180;42.676;23.320;2023-04-21T04:38:36;94343.53;;;10.93;100.00
38400;BME280;24180;42.676;23.320;2023-04-21T04:41:02;94392.75;;;11.26;100.00
38400;BME280;24180;42.676;23.320;2023-04-21T04:43:29;94372.63;;;11.20;100.00
38400;BME280;24180;42.676;23.320;2023-04-21T04:45:58;94394.09;;;11.39;100.00
38400;BME280;24180;42.676;23.320;2023-04-21T04:48:23;94403.19;;;11.51;100.00
38400;BME280;24180;42.676;23.320;2023-04-21T04:50:49;94403.81;;;11.45;100.00
38400;BME280;24180;42.676;23.320;2023-04-21T04:53:14;94371.84;;;11.36;100.00
38400;BME280;24180;42.676;23.320;2023-04-21T04:55:40;94396.22;;;11.51;100.00
38400;BME280;24180;42.676;23.320;2023-04-21T04:58:05;94403.84;;;11.53;100.00
38400;BME280;24180;42.676;23.320;2023-04-21T05:00:31;94364.72;;;11.30;100.00
38400;BME280;24180;42.676;23.320;2023-04-21T05:02:56;94372.09;;;11.51;100.00
38400;BME280;24180;42.676;23.320;2023-04-21T05:05:22;94377.06;;;11.44;100.00
38400;BME280;24180;42.676;23.320;2023-04-21T05:07:49;94362.00;;;11.48;100.00
38400;BME280;24180;42.676;23.320;2023-04-21T05:10:14;94373.91;;;11.66;100.00
38400;BME280;24180;42.676;23.320;2023-04-21T05:12:39;94406.22;;;11.88;100.00
38400;BME280;24180;42.676;23.320;2023-04-21T05:15:05;94406.66;;;11.76;100.00
38400;BME280;24180;42.676;23.320;2023-04-21T05:17:32;94382.13;;;11.54;100.00
38400;BME280;24180;42.676;23.320;2023-04-21T05:19:57;94382.44;;;11.51;100.00
38400;BME280;24180;42.676;23.320;2023-04-21T05:22:22;94364.91;;;11.37;100.00
38400;BME280;24180;42.676;23.320;2023-04-21T05:24:48;94408.47;;;11.75;100.00
38400;BME280;24180;42.676;23.320;2023-04-21T05:27:13;94374.69;;;11.59;100.00
38400;BME280;24180;42.676;23.320;2023-04-21T05:29:39;94407.84;;;11.89;100.00
38400;BME280;24180;42.676;23.320;2023-04-21T05:32:04;94407.50;;;11.92;100.00
38400;BME280;24180;42.676;23.320;2023-04-21T05:34:30;94368.75;;;11.75;100.00
38400;BME280;24180;42.676;23.320;2023-04-21T05:36:56;94407.53;;;12.00;100.00
38400;BME280;24180;42.676;23.320;2023-04-21T05:39:21;94386.75;;;11.92;100.00
38400;BME280;24180;42.676;23.320;2023-04-21T05:41:47;94386.28;;;11.97;100.00
38400;BME280;24180;42.676;23.320;2023-04-21T05:44:12;94382.25;;;11.94;100.00
38400;BME280;24180;42.676;23.320;2023-04-21T05:46:37;94388.53;;;11.92;100.00
38400;BME280;24180;42.676;23.320;2023-04-21T05:49:03;94382.22;;;11.78;100.00
38400;BME280;24180;42.676;23.320;2023-04-21T05:51:28;94393.50;;;11.69;100.00
38400;BME280;24180;42.676;23.320;2023-04-21T05:53:54;94381.47;;;11.52;100.00
38400;BME280;24180;42.676;23.320;2023-04-21T05:56:19;94385.13;;;11.75;100.00
38400;BME280;24180;42.676;23.320;2023-04-21T05:58:45;94405.94;;;11.99;100.00
38400;BME280;24180;42.676;23.320;2023-04-21T06:01:11;94393.25;;;12.04;100.00
38400;BME280;24180;42.676;23.320;2023-04-21T06:03:37;94372.00;;;11.85;100.00
38400;BME280;24180;42.676;23.320;2023-04-21T06:06:04;94396.03;;;12.03;100.00
38400;BME280;24180;42.676;23.320;2023-04-21T06:08:30;94386.59;;;11.94;100.00
38400;BME280;24180;42.676;23.320;2023-04-21T06:10:56;94367.63;;;11.85;100.00
38400;BME280;24180;42.676;23.320;2023-04-21T06:13:21;94397.34;;;12.15;100.00
38400;BME280;24180;42.676;23.320;2023-04-21T06:15:47;94367.31;;;11.96;100.00
38400;BME280;24180;42.676;23.320;2023-04-21T06:18:12;94409.19;;;12.17;100.00
38400;BME280;24180;42.676;23.320;2023-04-21T06:20:37;94369.88;;;11.88;100.00
38400;BME280;24180;42.676;23.320;2023-04-21T06:23:05;94409.16;;;12.09;100.00
38400;BME280;24180;42.676;23.320;2023-04-21T06:25:30;94395.56;;;12.24;100.00
38400;BME280;24180;42.676;23.320;2023-04-21T06:27:55;94402.69;;;12.46;100.00
38400;BME280;24180;42.676;23.320;2023-04-21T06:30:21;94377.53;;;12.30;100.00
38400;BME280;24180;42.676;23.320;2023-04-21T06:32:46;94389.56;;;12.47;100.00
38400;BME280;24180;42.676;23.320;2023-04-21T06:35:13;94372.00;;;12.33;100.00
38400;BME280;24180;42.676;23.320;2023-04-21T06:37:42;94397.81;;;12.43;100.00
38400;BME280;24180;42.676;23.320;2023-04-21T06:40:07;94399.44;;;12.44;100.00
38400;BME280;24180;42.676;23.320;2023-04-21T06:42:33;94376.56;;;12.55;100.00
38400;BME280;24180;42.676;23.320;2023-04-21T06:44:58;94387.06;;;12.70;100.00
38400;BME280;24180;42.676;23.320;2023-04-21T06:47:24;94384.66;;;12.60;100.00
38400;BME280;24180;42.676;23.320;2023-04-21T06:49:49;94382.25;;;12.51;100.00
38400;BME280;24180;42.676;23.320;2023-04-21T06:52:15;94389.22;;;12.58;100.00
38400;BME280;24180;42.676;23.320;2023-04-21T06:54:40;94367.31;;;12.45;100.00
38400;BME280;24180;42.676;23.320;2023-04-21T06:57:05;94366.69;;;12.35;100.00
38400;BME280;24180;42.676;23.320;2023-04-21T06:59:31;94385.31;;;12.54;100.00
38400;BME280;24180;42.676;23.320;2023-04-21T07:01:58;94375.72;;;12.71;100.00
38400;BME280;24180;42.676;23.320;2023-04-21T07:04:23;94353.16;;;12.72;100.00
38400;BME280;24180;42.676;23.320;2023-04-21T07:06:54;94380.50;;;13.06;100.00
38400;BME280;24180;42.676;23.320;2023-04-21T07:09:20;94369.63;;;13.11;100.00
38400;BME280;24180;42.676;23.320;2023-04-21T07:11:45;94382.69;;;13.34;100.00
38400;BME280;24180;42.676;23.320;2023-04-21T07:14:11;94359.63;;;13.31;100.00
38400;BME280;24180;42.676;23.320;2023-04-21T07:16:36;94379.50;;;13.24;100.00
38400;BME280;24180;42.676;23.320;2023-04-21T07:19:02;94357.69;;;13.25;100.00
38400;BME280;24180;42.676;23.320;2023-04-21T07:21:27;94355.72;;;13.35;100.00
38400;BME280;24180;42.676;23.320;2023-04-21T07:23:55;94361.28;;;13.85;100.00
38400;BME280;24180;42.676;23.320;2023-04-21T07:26:20;94362.75;;;14.25;100.00
38400;BME280;24180;42.676;23.320;2023-04-21T07:28:45;94363.69;;;14.55;100.00
38400;BME280;24180;42.676;23.320;2023-04-21T07:31:11;94381.13;;;14.69;100.00
38400;BME280;24180;42.676;23.320;2023-04-21T07:33:36;94364.19;;;14.36;100.00
38400;BME280;24180;42.676;23.320;2023-04-21T07:36:02;94384.63;;;13.93;100.00
38400;BME280;24180;42.676;23.320;2023-04-21T07:38:27;94357.19;;;13.60;100.00
38400;BME280;24180;42.676;23.320;2023-04-21T07:40:53;94361.47;;;13.53;100.00
38400;BME280;24180;42.676;23.320;2023-04-21T07:43:18;94350.97;;;13.38;100.00
38400;BME280;24180;42.676;23.320;2023-04-21T07:45:44;94364.16;;;13.68;100.00
38400;BME280;24180;42.676;23.320;2023-04-21T07:48:10;94353.09;;;13.66;100.00
38400;BME280;24180;42.676;23.320;2023-04-21T07:50:35;94367.19;;;13.79;100.00
38400;BME280;24180;42.676;23.320;2023-04-21T07:53:01;94358.78;;;14.15;100.00
38400;BME280;24180;42.676;23.320;2023-04-21T07:55:27;94384.56;;;14.24;100.00
38400;BME280;24180;42.676;23.320;2023-04-21T07:57:53;94349.69;;;14.56;100.00
38400;BME280;24180;42.676;23.320;2023-04-21T08:00:18;94372.19;;;15.16;100.00
38400;BME280;24180;42.676;23.320;2023-04-21T08:02:44;94349.88;;;15.28;100.00
38400;BME280;24180;42.676;23.320;2023-04-21T08:05:10;94355.63;;;15.23;100.00
38400;BME280;24180;42.676;23.320;2023-04-21T08:07:35;94376.97;;;15.56;100.00
38400;BME280;24180;42.676;23.320;2023-04-21T08:10:01;94386.81;;;15.61;100.00
38400;BME280;24180;42.676;23.320;2023-04-21T08:12:27;94364.09;;;15.40;100.00
38400;BME280;24180;42.676;23.320;2023-04-21T08:14:52;94363.06;;;15.41;100.00
38400;BME280;24180;42.676;23.320;2023-04-21T08:17:18;94384.13;;;15.54;100.00
38400;BME280;24180;42.676;23.320;2023-04-21T08:19:43;94351.25;;;15.24;100.00
38400;BME280;24180;42.676;23.320;2023-04-21T08:22:08;94369.91;;;15.57;100.00
38400;BME280;24180;42.676;23.320;2023-04-21T08:24:34;94371.09;;;15.54;100.00
38400;BME280;24180;42.676;23.320;2023-04-21T08:27:00;94347.25;;;15.42;100.00
38400;BME280;24180;42.676;23.320;2023-04-21T08:29:26;94370.06;;;15.84;100.00
38400;BME280;24180;42.676;23.320;2023-04-21T08:31:52;94354.84;;;15.73;100.00
38400;BME280;24180;42.676;23.320;2023-04-21T08:34:17;94375.00;;;15.79;100.00
38400;BME280;24180;42.676;23.320;2023-04-21T08:36:44;94349.56;;;15.67;100.00
38400;BME280;24180;42.676;23.320;2023-04-21T08:39:11;94337.66;;;15.28;100.00
38400;BME280;24180;42.676;23.320;2023-04-21T08:41:38;94373.50;;;15.41;100.00
38400;BME280;24180;42.676;23.320;2023-04-21T08:44:06;94358.25;;;15.53;100.00
38400;BME280;24180;42.676;23.320;2023-04-21T08:46:32;94366.84;;;15.89;100.00
38400;BME280;24180;42.676;23.320;2023-04-21T08:48:57;94361.31;;;15.77;100.00
38400;BME280;24180;42.676;23.320;2023-04-21T08:51:26;94348.66;;;15.45;100.00
38400;BME280;24180;42.676;23.320;2023-04-21T08:53:53;94373.72;;;15.39;100.00
38400;BME280;24180;42.676;23.320;2023-04-21T08:56:19;94339.44;;;15.28;100.00
38400;BME280;24180;42.676;23.320;2023-04-21T08:58:45;94328.47;;;15.18;100.00
38400;BME280;24180;42.676;23.320;2023-04-21T09:01:10;94328.47;;;15.32;100.00
38400;BME280;24180;42.676;23.320;2023-04-21T09:03:36;94361.72;;;15.45;100.00
38400;BME280;24180;42.676;23.320;2023-04-21T09:06:04;94329.56;;;15.23;100.00
38400;BME280;24180;42.676;23.320;2023-04-21T09:08:30;94358.03;;;15.54;100.00
38400;BME280;24180;42.676;23.320;2023-04-21T09:10:57;94327.19;;;15.43;100.00
38400;BME280;24180;42.676;23.320;2023-04-21T09:13:36;94275.22;;;15.27;100.00
38400;BME280;24180;42.676;23.320;2023-04-21T09:16:04;94334.94;;;16.08;99.36
38400;BME280;24180;42.676;23.320;2023-04-21T09:18:31;94339.44;;;16.21;100.00
38400;BME280;24180;42.676;23.320;2023-04-21T09:21:09;94301.28;;;16.20;97.76
38400;BME280;24180;42.676;23.320;2023-04-21T09:23:41;94312.09;;;16.17;97.17
38400;BME280;24180;42.676;23.320;2023-04-21T09:26:06;94294.00;;;16.15;97.27
38400;BME280;24180;42.676;23.320;2023-04-21T09:28:32;94320.94;;;16.16;96.04
38400;BME280;24180;42.676;23.320;2023-04-21T09:30:58;94295.94;;;16.07;93.87
38400;BME280;24180;42.676;23.320;2023-04-21T09:33:23;94322.59;;;16.23;94.86
38400;BME280;24180;42.676;23.320;2023-04-21T09:35:49;94329.25;;;16.26;93.68
38400;BME280;24180;42.676;23.320;2023-04-21T09:38:14;94302.09;;;16.20;91.77
38400;BME280;24180;42.676;23.320;2023-04-21T09:40:40;94302.38;;;16.32;86.51
38400;BME280;24180;42.676;23.320;2023-04-21T09:43:06;94310.81;;;16.83;88.02
38400;BME280;24180;42.676;23.320;2023-04-21T09:45:32;94294.38;;;17.37;83.74
38400;BME280;24180;42.676;23.320;2023-04-21T09:47:59;94297.31;;;17.20;81.18
38400;BME280;24180;42.676;23.320;2023-04-21T09:50:26;94303.72;;;17.11;82.29
38400;BME280;24180;42.676;23.320;2023-04-21T09:52:53;94308.06;;;16.98;84.55
38400;BME280;24180;42.676;23.320;2023-04-21T09:55:38;94322.84;;;17.18;83.73
38400;BME280;24180;42.676;23.320;2023-04-21T09:58:04;94308.59;;;17.21;80.52
38400;BME280;24180;42.676;23.320;2023-04-21T10:00:32;94290.28;;;16.80;83.24
38400;BME280;24180;42.676;23.320;2023-04-21T10:03:04;94315.88;;;16.91;85.23
38400;BME280;24180;42.676;23.320;2023-04-21T10:05:34;94318.19;;;17.14;81.98
38400;BME280;24180;42.676;23.320;2023-04-21T10:08:00;94306.81;;;17.28;80.90
38400;BME280;24180;42.676;23.320;2023-04-21T10:10:27;94278.88;;;16.94;80.17
38400;BME280;24180;42.676;23.320;2023-04-21T10:12:55;94296.88;;;16.76;78.74
38400;BME280;24180;42.676;23.320;2023-04-21T10:15:40;94284.66;;;16.83;81.47
38400;BME280;24180;42.676;23.320;2023-04-21T10:18:20;94308.38;;;16.81;83.36
38400;BME280;24180;42.676;23.320;2023-04-21T10:24:10;94315.38;;;16.74;91.71
38400;BME280;24180;42.676;23.320;2023-04-21T10:26:33;94300.38;;;16.34;92.45
38400;BME280;24180;42.676;23.320;2023-04-21T10:29:03;94283.56;;;16.15;94.57
38400;BME280;24180;42.676;23.320;2023-04-21T10:31:33;94306.59;;;16.33;93.30
38400;BME280;24180;42.676;23.320;2023-04-21T10:42:18;94267.31;;;18.82;65.14
38400;BME280;24180;42.676;23.320;2023-04-21T10:45:05;94309.59;;;17.61;74.34
38400;BME280;24180;42.676;23.320;2023-04-21T10:47:48;94270.91;;;16.74;83.05
38400;BME280;24180;42.676;23.320;2023-04-21T10:50:22;94302.00;;;16.91;84.33
38400;BME280;24180;42.676;23.320;2023-04-21T10:55:19;94303.06;;;16.68;80.65
38400;BME280;24180;42.676;23.320;2023-04-21T10:57:45;94278.00;;;16.80;81.50
38400;BME280;24180;42.676;23.320;2023-04-21T11:00:14;94306.25;;;17.46;76.84
38400;BME280;24180;42.676;23.320;2023-04-21T11:02:40;94288.91;;;18.78;71.44
38400;BME280;24180;42.676;23.320;2023-04-21T11:05:07;94254.00;;;22.87;50.02
38400;BME280;24180;42.676;23.320;2023-04-21T11:07:33;94293.13;;;22.02;48.05
38400;BME280;24180;42.676;23.320;2023-04-21T11:10:00;94283.94;;;19.27;56.64
38400;BME280;24180;42.676;23.320;2023-04-21T11:12:28;94288.25;;;19.02;63.09
38400;BME280;24180;42.676;23.320;2023-04-21T11:14:54;94284.06;;;18.88;64.29
38400;BME280;24180;42.676;23.320;2023-04-21T11:17:20;94288.72;;;18.73;65.78
38400;BME280;24180;42.676;23.320;2023-04-21T11:19:54;94278.22;;;18.46;67.34
38400;BME280;24180;42.676;23.320;2023-04-21T11:22:23;94266.13;;;18.72;68.60
38400;BME280;24180;42.676;23.320;2023-04-21T11:24:52;94282.22;;;18.95;68.04
38400;BME280;24180;42.676;23.320;2023-04-21T11:27:19;94256.34;;;19.05;62.30
38400;BME280;24180;42.676;23.320;2023-04-21T11:29:47;94247.53;;;19.82;56.24
38400;BME280;24180;42.676;23.320;2023-04-21T11:32:14;94273.94;;;20.18;55.96
38400;BME280;24180;42.676;23.320;2023-04-21T11:34:40;94284.38;;;21.72;48.70
38400;BME280;24180;42.676;23.320;2023-04-21T11:37:12;94261.97;;;20.22;54.51
38400;BME280;24180;42.676;23.320;2023-04-21T11:39:39;94253.50;;;19.06;65.45
38400;BME280;24180;42.676;23.320;2023-04-21T11:42:05;94290.94;;;18.36;75.19
38400;BME280;24180;42.676;23.320;2023-04-21T11:44:41;94230.59;;;17.57;79.73
38400;BME280;24180;42.676;23.320;2023-04-21T11:47:16;94290.63;;;17.59;82.67
38400;BME280;24180;42.676;23.320;2023-04-21T11:49:53;94284.09;;;17.42;80.54
38400;BME280;24180;42.676;23.320;2023-04-21T11:54:45;94281.84;;;17.93;71.85
38400;BME280;24180;42.676;23.320;2023-04-21T11:57:11;94274.19;;;17.85;65.65
38400;BME280;24180;42.676;23.320;2023-04-21T11:59:37;94284.28;;;18.07;59.34
38400;BME280;24180;42.676;23.320;2023-04-21T12:02:02;94261.09;;;17.98;60.31
38400;BME280;24180;42.676;23.320;2023-04-21T12:04:27;94281.25;;;17.97;58.00
38400;BME280;24180;42.676;23.320;2023-04-21T12:06:58;94289.31;;;17.96;56.83
38400;BME280;24180;42.676;23.320;2023-04-21T12:09:24;94266.72;;;17.88;56.13
38400;BME280;24180;42.676;23.320;2023-04-21T12:11:52;94271.56;;;17.98;56.78
38400;BME280;24180;42.676;23.320;2023-04-21T12:14:19;94288.50;;;17.95;60.11
38400;BME280;24180;42.676;23.320;2023-04-21T12:16:56;94285.28;;;18.00;61.25
38400;BME280;24180;42.676;23.320;2023-04-21T12:19:39;94276.19;;;18.88;58.56
38400;BME280;24180;42.676;23.320;2023-04-21T12:22:07;94258.97;;;19.94;54.62
38400;BME280;24180;42.676;23.320;2023-04-21T12:24:32;94289.38;;;20.39;52.22
38400;BME280;24180;42.676;23.320;2023-04-21T12:26:58;94268.88;;;19.60;54.52
38400;BME280;24180;42.676;23.320;2023-04-21T12:29:23;94294.28;;;19.09;57.25
38400;BME280;24180;42.676;23.320;2023-04-21T12:31:49;94295.97;;;18.70;60.26
38400;BME280;24180;42.676;23.320;2023-04-21T12:34:14;94261.91;;;18.31;60.98
38400;BME280;24180;42.676;23.320;2023-04-21T12:36:40;94268.34;;;18.48;61.81
38400;BME280;24180;42.676;23.320;2023-04-21T12:39:05;94291.16;;;18.61;58.14
38400;BME280;24180;42.676;23.320;2023-04-21T12:41:31;94252.44;;;18.37;59.08
38400;BME280;24180;42.676;23.320;2023-04-21T12:43:58;94259.47;;;18.69;61.35
38400;BME280;24180;42.676;23.320;2023-04-21T12:46:24;94279.06;;;19.31;60.73
38400;BME280;24180;42.676;23.320;2023-04-21T12:48:50;94278.56;;;19.02;57.06
38400;BME280;24180;42.676;23.320;2023-04-21T12:51:16;94259.44;;;18.82;57.57
38400;BME280;24180;42.676;23.320;2023-04-21T12:53:42;94283.66;;;18.51;61.74
38400;BME280;24180;42.676;23.320;2023-04-21T12:56:07;94250.81;;;18.68;62.38